createdAt,value
2023-07-02T00:00:06.656Z,13.13
2023-07-02T00:02:33.557Z,14.10
2023-07-02T00:05:00.379Z,11.63
2023-07-02T00:07:27.227Z,13.75
2023-07-02T00:09:54.296Z,14.65
2023-07-02T00:12:21.234Z,21.77
2023-07-02T00:14:47.906Z,15.02
2023-07-02T00:17:14.605Z,12.77
2023-07-02T00:19:43.120Z,14.90
2023-07-02T00:22:10.690Z,13.07
2023-07-02T00:24:38.264Z,15.02
2023-07-02T00:27:05.749Z,18.70
2023-07-02T00:29:32.397Z,13.32
2023-07-02T00:31:59.100Z,15.02
2023-07-02T00:34:26.200Z,14.45
2023-07-02T00:36:53.379Z,15.50
2023-07-02T00:39:20.239Z,15.95
2023-07-02T00:41:50.156Z,14.52
2023-07-02T00:44:16.841Z,15.50
2023-07-02T00:46:43.662Z,16.05
2023-07-02T00:49:11.113Z,16.15
2023-07-02T00:54:05.920Z,13.60
2023-07-02T00:56:32.810Z,16.65
2023-07-02T00:58:59.970Z,12.80
2023-07-02T01:04:00.972Z,14.43
2023-07-02T01:06:29.654Z,15.00
2023-07-02T01:08:59.381Z,13.82
2023-07-02T01:11:29.550Z,15.00
2023-07-02T01:14:06.688Z,12.73
2023-07-02T01:19:04.507Z,13.02
2023-07-02T01:21:33.545Z,15.02
2023-07-02T01:24:02.191Z,15.70
2023-07-02T01:26:35.828Z,17.50
2023-07-02T01:29:19.118Z,13.25
2023-07-02T01:31:46.960Z,13.00
2023-07-02T01:34:14.535Z,17.73
2023-07-02T01:36:41.712Z,17.15
2023-07-02T01:39:08.550Z,17.63
2023-07-02T01:41:52.575Z,15.57
2023-07-02T01:44:20.685Z,16.08
2023-07-02T01:46:50.164Z,17.67
2023-07-02T01:49:17.824Z,20.60
2023-07-02T01:51:51.518Z,18.90
2023-07-02T01:54:19.398Z,16.02
2023-07-02T01:56:46.158Z,15.70
2023-07-02T01:59:13.200Z,18.75
2023-07-02T02:01:43.061Z,25.35
2023-07-02T02:04:11.373Z,14.25
2023-07-02T02:06:39.411Z,20.40
2023-07-02T02:09:07.033Z,18.63
2023-07-02T02:11:35.333Z,21.02
2023-07-02T02:14:04.785Z,19.58
2023-07-02T02:16:31.660Z,23.73
2023-07-02T02:18:58.374Z,20.95
2023-07-02T02:21:25.074Z,22.50
2023-07-02T02:23:51.828Z,23.13
2023-07-02T02:26:18.553Z,15.45
2023-07-02T02:28:45.537Z,16.40
2023-07-02T02:31:12.226Z,17.67
2023-07-02T02:33:39.076Z,16.35
2023-07-02T02:36:05.964Z,16.27
2023-07-02T02:38:32.632Z,17.90
2023-07-02T02:40:59.287Z,19.08
2023-07-02T02:43:25.945Z,14.77
2023-07-02T02:45:52.626Z,14.95
2023-07-02T02:48:19.335Z,14.73
2023-07-02T02:50:46.716Z,17.95
2023-07-02T02:53:13.593Z,16.58
2023-07-02T02:55:40.181Z,18.42
2023-07-02T02:58:06.996Z,20.33
2023-07-02T03:00:33.685Z,15.15
2023-07-02T03:03:00.783Z,16.58
2023-07-02T03:05:27.673Z,13.05
2023-07-02T03:07:54.372Z,9.98
2023-07-02T03:10:21.150Z,14.88
2023-07-02T03:12:49.062Z,14.07
2023-07-02T03:15:15.774Z,14.43
2023-07-02T03:17:42.526Z,16.75
2023-07-02T03:20:09.575Z,14.30
2023-07-02T03:22:36.261Z,15.23
2023-07-02T03:25:03.376Z,11.95
2023-07-02T03:27:30.087Z,15.55
2023-07-02T03:29:56.934Z,13.48
2023-07-02T03:32:23.746Z,16.88
2023-07-02T03:34:50.480Z,16.45
2023-07-02T03:37:17.194Z,15.40
2023-07-02T03:39:43.859Z,15.30
2023-07-02T03:42:10.510Z,13.30
2023-07-02T03:44:37.149Z,16.23
2023-07-02T03:47:03.992Z,15.98
2023-07-02T03:49:30.666Z,16.02
2023-07-02T03:51:57.372Z,16.55
2023-07-02T03:54:24.035Z,14.10
2023-07-02T03:56:50.649Z,14.95
2023-07-02T03:59:17.318Z,15.85
2023-07-02T04:01:44.923Z,14.65
2023-07-02T04:04:13.026Z,13.93
2023-07-02T04:06:39.925Z,12.90
2023-07-02T04:09:06.690Z,15.18
2023-07-02T04:11:33.380Z,14.20
2023-07-02T04:14:00.031Z,14.32
2023-07-02T04:16:26.701Z,14.27
2023-07-02T04:18:53.487Z,13.55
2023-07-02T04:21:20.137Z,14.27
2023-07-02T04:23:46.803Z,10.15
2023-07-02T04:26:49.191Z,11.18
2023-07-02T04:29:00.381Z,12.07
2023-07-02T04:31:27.435Z,9.70
2023-07-02T04:33:54.226Z,7.85
2023-07-02T04:36:20.882Z,8.18
2023-07-02T04:38:47.527Z,8.98
2023-07-02T04:41:14.191Z,7.88
2023-07-02T04:43:40.950Z,8.95
2023-07-02T04:46:08.912Z,9.38
2023-07-02T04:48:35.886Z,9.05
2023-07-02T04:51:02.645Z,9.55
2023-07-02T04:53:29.415Z,10.77
2023-07-02T04:55:57.886Z,12.43
2023-07-02T04:58:24.722Z,9.35
2023-07-02T05:00:51.781Z,10.15
2023-07-02T05:03:18.736Z,12.07
2023-07-02T05:05:45.895Z,11.45
2023-07-02T05:08:12.754Z,12.23
2023-07-02T05:10:39.416Z,9.50
2023-07-02T05:13:06.194Z,11.70
2023-07-02T05:15:32.863Z,9.98
2023-07-02T05:17:59.642Z,9.55
2023-07-02T05:20:27.033Z,9.70
2023-07-02T05:22:53.655Z,10.85
2023-07-02T05:25:20.431Z,10.50
2023-07-02T05:27:48.419Z,11.27
2023-07-02T05:30:16.067Z,9.98
2023-07-02T05:32:43.567Z,11.32
2023-07-02T05:35:10.260Z,12.13
2023-07-02T05:37:36.955Z,11.30
2023-07-02T05:40:04.189Z,12.27
2023-07-02T05:44:57.534Z,10.88
2023-07-02T05:47:24.399Z,13.00
2023-07-02T05:49:52.237Z,10.15
2023-07-02T05:52:20.115Z,10.90
2023-07-02T05:54:46.829Z,10.50
2023-07-02T05:57:13.476Z,10.88
2023-07-02T05:59:40.236Z,9.85
2023-07-02T06:02:07.761Z,11.43
2023-07-02T06:04:34.506Z,13.65
2023-07-02T06:07:01.218Z,8.80
2023-07-02T06:09:27.893Z,9.80
2023-07-02T06:11:54.718Z,10.60
2023-07-02T06:14:21.467Z,8.57
2023-07-02T06:16:48.327Z,9.35
2023-07-02T06:19:15.080Z,11.13
2023-07-02T06:21:41.711Z,9.88
2023-07-02T06:24:08.446Z,9.73
2023-07-02T06:26:35.132Z,9.75
2023-07-02T06:29:01.972Z,9.73
2023-07-02T06:31:28.883Z,10.18
2023-07-02T06:33:55.705Z,11.35
2023-07-02T06:36:22.398Z,9.65
2023-07-02T06:38:49.067Z,8.80
2023-07-02T06:41:16.176Z,11.32
2023-07-02T06:43:45.104Z,11.52
2023-07-02T06:46:13.273Z,10.85
2023-07-02T06:48:40.201Z,10.05
2023-07-02T06:51:08.262Z,8.68
2023-07-02T06:53:35.294Z,9.50
2023-07-02T06:56:02.134Z,9.65
2023-07-02T06:58:28.844Z,10.73
2023-07-02T07:00:55.610Z,10.07
2023-07-02T07:03:22.465Z,9.38
2023-07-02T07:05:51.430Z,9.98
2023-07-02T07:08:18.301Z,9.68
2023-07-02T07:10:46.496Z,9.18
2023-07-02T07:13:13.603Z,10.20
2023-07-02T07:15:40.265Z,8.30
2023-07-02T07:18:07.133Z,11.05
2023-07-02T07:20:33.870Z,9.88
2023-07-02T07:23:00.860Z,9.63
2023-07-02T07:25:27.709Z,9.05
2023-07-02T07:27:54.794Z,8.65
2023-07-02T07:30:24.223Z,11.40
2023-07-02T07:32:54.666Z,9.95
2023-07-02T07:35:23.006Z,11.75
2023-07-02T07:37:50.799Z,11.25
2023-07-02T07:40:17.672Z,10.65
2023-07-02T07:42:44.764Z,10.90
2023-07-02T07:45:12.795Z,11.20
2023-07-02T07:47:40.400Z,8.93
2023-07-02T07:50:12.003Z,11.23
2023-07-02T07:52:43.260Z,11.30
2023-07-02T07:55:10.550Z,9.98
2023-07-02T08:00:07.260Z,8.98
2023-07-02T08:02:35.087Z,10.00
2023-07-02T08:05:02.150Z,8.75
2023-07-02T08:07:28.827Z,11.10
2023-07-02T08:09:55.523Z,11.82
2023-07-02T08:12:22.239Z,11.90
2023-07-02T08:14:50.582Z,8.15
2023-07-02T08:17:17.285Z,7.55
2023-07-02T08:19:44.095Z,9.20
2023-07-02T08:22:10.882Z,10.23
2023-07-02T08:24:37.618Z,10.32
2023-07-02T08:27:04.642Z,11.75
2023-07-02T08:29:31.657Z,8.75
2023-07-02T08:31:59.071Z,9.20
2023-07-02T08:34:26.282Z,9.93
2023-07-02T08:36:52.998Z,9.85
2023-07-02T08:39:19.707Z,8.50
2023-07-02T08:41:48.704Z,10.38
2023-07-02T08:44:20.222Z,7.55
2023-07-02T08:46:48.713Z,9.70
2023-07-02T08:49:15.435Z,11.90
2023-07-02T08:51:42.087Z,10.45
2023-07-02T08:54:08.697Z,8.93
2023-07-02T08:56:35.306Z,8.35
2023-07-02T08:59:01.941Z,7.00
2023-07-02T09:01:28.885Z,8.00
2023-07-02T09:04:03.233Z,7.25
2023-07-02T09:06:30.042Z,7.70
2023-07-02T09:09:05.373Z,5.68
2023-07-02T09:11:32.108Z,6.97
2023-07-02T09:14:01.706Z,7.25
2023-07-02T09:16:34.070Z,7.88
2023-07-02T09:19:07.124Z,9.07
2023-07-02T09:21:44.655Z,9.18
2023-07-02T09:24:24.058Z,6.30
2023-07-02T09:26:54.448Z,9.88
2023-07-02T09:29:29.746Z,8.05
2023-07-02T09:34:32.970Z,7.78
2023-07-02T09:37:00.773Z,7.60
2023-07-02T09:39:32.539Z,7.60
2023-07-02T09:42:01.249Z,8.55
2023-07-02T09:44:33.415Z,7.65
2023-07-02T09:47:07.099Z,7.43
2023-07-02T09:49:48.397Z,6.68
2023-07-02T09:52:15.923Z,6.63
2023-07-02T09:54:43.146Z,7.50
2023-07-02T09:59:36.675Z,11.35
2023-07-02T10:02:03.983Z,6.28
2023-07-02T10:04:56.017Z,7.32
2023-07-02T10:07:31.639Z,6.13
2023-07-02T10:09:58.697Z,6.10
2023-07-02T10:14:55.002Z,7.03
2023-07-02T10:17:30.445Z,5.80
2023-07-02T10:19:59.976Z,7.53
2023-07-02T10:22:27.012Z,5.68
2023-07-02T10:25:06.949Z,8.50
2023-07-02T10:27:38.830Z,4.40
2023-07-02T10:30:10.597Z,5.93
2023-07-02T10:32:39.267Z,3.95
2023-07-02T10:35:17.110Z,4.25
2023-07-02T10:37:44.452Z,5.10
2023-07-02T10:40:13.287Z,6.82
2023-07-02T10:43:06.061Z,6.07
2023-07-02T10:45:34.589Z,7.07
2023-07-02T10:48:12.080Z,4.88
2023-07-02T10:50:38.805Z,6.10
2023-07-02T10:53:06.149Z,5.25
2023-07-02T10:55:32.830Z,5.80
2023-07-02T10:58:09.205Z,8.20
2023-07-02T11:00:46.546Z,5.30
2023-07-02T11:03:27.392Z,6.07
2023-07-02T11:05:55.241Z,5.47
2023-07-02T11:08:22.866Z,5.57
2023-07-02T11:10:49.766Z,5.72
2023-07-02T11:13:20.861Z,6.88
2023-07-02T11:15:49.054Z,7.63
2023-07-02T11:18:17.896Z,5.57
2023-07-02T11:20:46.528Z,5.25
2023-07-02T11:23:20.815Z,5.28
2023-07-02T11:25:58.517Z,5.55
2023-07-02T11:28:25.928Z,4.95
2023-07-02T11:30:52.824Z,5.20
2023-07-02T11:33:19.585Z,6.35
2023-07-02T11:35:46.461Z,6.28
2023-07-02T11:38:15.531Z,5.70
2023-07-02T11:40:42.356Z,7.53
2023-07-02T11:43:09.063Z,7.65
2023-07-02T11:45:35.760Z,9.57
2023-07-02T11:48:02.564Z,8.38
2023-07-02T11:50:31.584Z,7.75
2023-07-02T11:52:58.291Z,16.00
2023-07-02T11:55:25.466Z,14.15
2023-07-02T12:00:19.032Z,11.95
2023-07-02T12:02:45.947Z,9.75
2023-07-02T12:05:13.269Z,12.50
2023-07-02T12:07:40.325Z,9.38
2023-07-02T12:10:09.072Z,13.10
2023-07-02T12:12:36.096Z,12.75
2023-07-02T12:15:03.700Z,12.77
2023-07-02T12:17:30.581Z,11.55
2023-07-02T12:19:58.032Z,12.10
2023-07-02T12:22:25.200Z,11.35
2023-07-02T12:27:21.249Z,9.88
2023-07-02T12:29:49.937Z,8.68
2023-07-02T12:32:16.892Z,8.30
2023-07-02T12:34:43.734Z,7.85
2023-07-02T12:37:10.620Z,8.15
2023-07-02T12:39:37.228Z,8.70
2023-07-02T12:42:04.304Z,8.13
2023-07-02T12:44:30.910Z,8.25
2023-07-02T12:46:57.733Z,7.18
2023-07-02T12:49:24.467Z,7.07
2023-07-02T12:51:51.144Z,8.30
2023-07-02T12:54:17.840Z,5.97
2023-07-02T12:56:44.606Z,5.90
2023-07-02T12:59:11.218Z,6.85
2023-07-02T13:01:38.037Z,7.80
2023-07-02T13:04:05.094Z,7.95
2023-07-02T13:09:02.718Z,6.70
2023-07-02T13:11:29.581Z,7.07
2023-07-02T13:13:56.411Z,7.57
2023-07-02T13:16:23.231Z,7.65
2023-07-02T13:18:49.953Z,7.40
2023-07-02T13:21:18.993Z,7.40
2023-07-02T13:23:47.128Z,7.28
2023-07-02T13:28:40.533Z,10.68
2023-07-02T13:31:07.626Z,9.10
2023-07-02T13:36:01.294Z,8.30
2023-07-02T13:38:28.357Z,8.52
2023-07-02T13:40:54.968Z,8.30
2023-07-02T13:43:21.667Z,7.53
2023-07-02T13:45:48.622Z,8.35
2023-07-02T13:48:15.652Z,8.95
2023-07-02T13:50:42.588Z,9.60
2023-07-02T13:53:09.886Z,7.20
2023-07-02T13:55:36.655Z,9.65
2023-07-02T13:58:03.349Z,7.28
2023-07-02T14:00:31.159Z,8.30
2023-07-02T14:02:58.916Z,7.80
2023-07-02T14:05:25.976Z,7.47
2023-07-02T14:07:52.750Z,7.00
2023-07-02T14:10:19.818Z,9.45
2023-07-02T14:15:13.980Z,11.00
2023-07-02T14:17:40.634Z,8.48
2023-07-02T14:20:09.647Z,8.93
2023-07-02T14:22:36.379Z,8.40
2023-07-02T14:25:03.262Z,8.43
2023-07-02T14:27:29.955Z,9.43
2023-07-02T14:29:57.231Z,10.65
2023-07-02T14:32:23.969Z,9.75
2023-07-02T14:34:50.606Z,11.70
2023-07-02T14:37:17.504Z,11.30
2023-07-02T14:39:57.204Z,11.30
2023-07-02T14:42:30.997Z,9.73
2023-07-02T14:44:57.891Z,10.30
2023-07-02T14:47:24.728Z,8.27
2023-07-02T14:49:52.281Z,9.32
2023-07-02T14:52:20.479Z,10.68
2023-07-02T14:54:47.211Z,11.70
2023-07-02T14:57:13.933Z,11.32
2023-07-02T14:59:40.797Z,13.75
2023-07-02T15:02:07.431Z,11.85
2023-07-02T15:04:34.317Z,13.27
2023-07-02T15:07:01.421Z,9.70
2023-07-02T15:09:28.126Z,12.13
2023-07-02T15:11:54.737Z,12.50
2023-07-02T15:14:21.371Z,15.52
2023-07-02T15:16:48.206Z,11.77
2023-07-02T15:19:17.199Z,10.30
2023-07-02T15:21:43.934Z,12.85
2023-07-02T15:24:13.385Z,8.95
2023-07-02T15:26:40.917Z,10.38
2023-07-02T15:29:07.665Z,9.88
2023-07-02T15:31:37.041Z,9.98
2023-07-02T15:34:03.770Z,10.75
2023-07-02T15:36:36.712Z,13.45
2023-07-02T15:39:04.689Z,12.38
2023-07-02T15:41:31.371Z,13.55
2023-07-02T15:44:03.484Z,10.05
2023-07-02T15:46:31.020Z,11.32
2023-07-02T15:49:02.275Z,13.85
2023-07-02T15:51:29.300Z,11.15
2023-07-02T15:53:57.083Z,12.95
2023-07-02T15:56:23.951Z,10.23
2023-07-02T15:58:50.857Z,9.82
2023-07-02T16:01:21.346Z,11.77
2023-07-02T16:03:48.766Z,12.18
2023-07-02T16:06:15.963Z,13.10
2023-07-02T16:11:11.405Z,10.93
2023-07-02T16:13:42.468Z,14.82
2023-07-02T16:16:09.691Z,13.82
2023-07-02T16:18:36.590Z,11.15
2023-07-02T16:21:05.641Z,12.20
2023-07-02T16:23:32.726Z,14.18
2023-07-02T16:28:30.492Z,13.57
2023-07-02T16:30:57.652Z,14.05
2023-07-02T16:35:51.360Z,11.05
2023-07-02T16:40:48.810Z,12.77
2023-07-02T16:43:17.614Z,10.60
2023-07-02T16:45:53.156Z,14.85
2023-07-02T16:48:19.905Z,12.13
2023-07-02T16:50:46.601Z,14.93
2023-07-02T16:53:13.923Z,13.77
2023-07-02T16:55:42.655Z,12.18
2023-07-02T16:58:09.524Z,17.33
2023-07-02T17:00:36.228Z,12.80
2023-07-02T17:03:03.091Z,11.23
2023-07-02T17:05:30.953Z,10.13
2023-07-02T17:07:57.626Z,13.35
2023-07-02T17:10:24.445Z,11.63
2023-07-02T17:12:51.114Z,11.13
2023-07-02T17:15:17.867Z,12.23
2023-07-02T17:17:44.640Z,13.27
2023-07-02T17:20:12.074Z,12.38
2023-07-02T17:22:38.792Z,14.52
2023-07-02T17:25:06.250Z,12.20
2023-07-02T17:27:33.301Z,15.32
2023-07-02T17:30:03.542Z,14.27
2023-07-02T17:32:30.715Z,14.55
2023-07-02T17:37:24.717Z,13.38
2023-07-02T17:39:51.642Z,12.80
2023-07-02T17:42:19.859Z,12.52
2023-07-02T17:44:48.292Z,15.60
2023-07-02T17:47:17.696Z,11.77
2023-07-02T17:49:47.666Z,15.38
2023-07-02T17:52:17.701Z,12.40
2023-07-02T17:54:50.824Z,15.23
2023-07-02T17:57:19.169Z,11.43
2023-07-02T17:59:47.643Z,13.77
2023-07-02T18:02:16.726Z,15.93
2023-07-02T18:04:45.915Z,12.48
2023-07-02T18:07:17.326Z,16.15
2023-07-02T18:09:50.513Z,10.45
2023-07-02T18:12:24.307Z,11.18
2023-07-02T18:14:51.842Z,11.52
2023-07-02T18:17:19.206Z,13.63
2023-07-02T18:19:46.251Z,10.13
2023-07-02T18:22:13.365Z,11.90
2023-07-02T18:24:41.904Z,14.07
2023-07-02T18:27:10.298Z,11.55
2023-07-02T18:29:39.012Z,12.98
2023-07-02T18:32:07.605Z,17.02
2023-07-02T18:34:37.082Z,12.48
2023-07-02T18:37:06.186Z,14.77
2023-07-02T18:39:34.861Z,14.20
2023-07-02T18:42:06.437Z,12.60
2023-07-02T18:44:36.295Z,13.88
2023-07-02T18:47:12.748Z,11.60
2023-07-02T18:49:40.552Z,13.77
2023-07-02T18:52:17.253Z,17.08
2023-07-02T18:54:43.980Z,14.15
2023-07-02T18:57:12.297Z,15.15
2023-07-02T18:59:41.442Z,12.65
2023-07-02T19:02:08.227Z,14.40
2023-07-02T19:04:35.517Z,15.25
2023-07-02T19:09:31.088Z,16.27
2023-07-02T19:11:57.870Z,15.20
2023-07-02T19:14:25.307Z,11.82
2023-07-02T19:16:52.082Z,15.00
2023-07-02T19:19:18.748Z,13.40
2023-07-02T19:21:45.468Z,14.00
2023-07-02T19:24:12.196Z,15.60
2023-07-02T19:26:38.918Z,11.98
2023-07-02T19:29:05.670Z,13.32
2023-07-02T19:31:32.496Z,11.48
2023-07-02T19:33:59.223Z,15.07
2023-07-02T19:36:25.867Z,14.82
2023-07-02T19:38:52.503Z,14.73
2023-07-02T19:41:19.131Z,12.88
2023-07-02T19:43:46.242Z,12.57
2023-07-02T19:46:13.044Z,12.90
2023-07-02T19:48:40.273Z,12.32
2023-07-02T19:53:35.472Z,14.50
2023-07-02T19:56:06.909Z,13.63
2023-07-02T19:58:34.286Z,15.80
2023-07-02T20:03:28.158Z,13.32
2023-07-02T20:05:55.908Z,15.55
2023-07-02T20:08:22.811Z,11.45
2023-07-02T20:10:49.521Z,13.00
2023-07-02T20:13:16.257Z,14.77
2023-07-02T20:15:42.916Z,15.02
2023-07-02T20:18:09.747Z,18.23
2023-07-02T20:20:36.479Z,19.55
2023-07-02T20:23:03.118Z,12.60
2023-07-02T20:28:01.568Z,13.13
2023-07-02T20:30:28.362Z,13.27
2023-07-02T20:32:55.160Z,14.35
2023-07-02T20:35:21.914Z,10.77
2023-07-02T20:37:52.483Z,14.70
2023-07-02T20:40:19.705Z,12.25
2023-07-02T20:42:46.472Z,20.42
2023-07-02T20:45:14.364Z,14.98
2023-07-02T20:47:42.363Z,14.57
2023-07-02T20:50:14.438Z,17.85
2023-07-02T20:52:42.167Z,13.23
2023-07-02T20:55:09.556Z,14.27
2023-07-02T21:00:07.866Z,14.15
2023-07-02T21:02:34.900Z,14.75
2023-07-02T21:05:01.949Z,19.75
2023-07-02T21:07:28.686Z,16.73
2023-07-02T21:09:55.343Z,13.32
2023-07-02T21:12:22.022Z,15.75
2023-07-02T21:14:53.334Z,13.18
2023-07-02T21:17:21.017Z,15.85
2023-07-02T21:19:48.129Z,13.02
2023-07-02T21:22:15.372Z,15.05
2023-07-02T21:27:08.589Z,14.55
2023-07-02T21:29:35.318Z,15.15
2023-07-02T21:32:02.085Z,12.38
2023-07-02T21:34:29.046Z,14.00
2023-07-02T21:36:55.745Z,13.20
2023-07-02T21:39:22.446Z,13.32
2023-07-02T21:41:49.520Z,15.60
2023-07-02T21:44:16.434Z,9.93
2023-07-02T21:46:43.263Z,10.75
2023-07-02T21:49:10.547Z,13.23
2023-07-02T21:51:37.277Z,13.25
2023-07-02T21:54:04.038Z,11.93
2023-07-02T21:56:30.695Z,12.25
2023-07-02T21:58:57.342Z,12.13
2023-07-02T22:01:24.183Z,11.82
2023-07-02T22:03:51.278Z,12.35
2023-07-02T22:06:18.310Z,12.68
2023-07-02T22:08:44.979Z,12.07
2023-07-02T22:11:23.067Z,11.57
2023-07-02T22:13:51.804Z,10.25
2023-07-02T22:16:18.999Z,13.60
2023-07-02T22:18:45.727Z,13.55
2023-07-02T22:21:12.539Z,9.65
2023-07-02T22:23:39.228Z,11.05
2023-07-02T22:26:06.380Z,10.98
2023-07-02T22:28:33.057Z,12.75
2023-07-02T22:31:02.119Z,11.07
2023-07-02T22:33:28.786Z,10.60
2023-07-02T22:35:55.455Z,10.65
2023-07-02T22:38:22.520Z,12.57
2023-07-02T22:40:49.298Z,12.73
2023-07-02T22:43:15.961Z,12.57
2023-07-02T22:45:42.715Z,14.13
2023-07-02T22:48:09.345Z,14.82
2023-07-02T22:50:36.147Z,10.70
2023-07-02T22:53:02.842Z,17.08
2023-07-02T22:55:31.044Z,10.02
2023-07-02T22:57:58.797Z,14.57
2023-07-02T23:00:26.618Z,10.52
2023-07-02T23:02:53.406Z,10.55
2023-07-02T23:05:21.805Z,16.35
2023-07-02T23:07:48.944Z,13.20
2023-07-02T23:10:17.717Z,14.60
2023-07-02T23:12:48.515Z,14.55
2023-07-02T23:15:18.340Z,12.55
2023-07-02T23:17:48.778Z,15.85
2023-07-02T23:20:16.602Z,11.23
2023-07-02T23:22:44.605Z,12.48
2023-07-02T23:25:15.454Z,12.90
2023-07-02T23:27:43.596Z,9.63
2023-07-02T23:30:18.279Z,17.67
2023-07-02T23:32:48.546Z,16.45
2023-07-02T23:35:16.586Z,20.77
2023-07-02T23:37:45.978Z,18.90
2023-07-02T23:40:16.980Z,21.42
2023-07-02T23:42:45.382Z,21.27
2023-07-02T23:45:14.143Z,16.75
2023-07-02T23:47:41.244Z,20.83
2023-07-02T23:50:08.909Z,18.27
2023-07-02T23:52:38.112Z,19.75
2023-07-02T23:55:07.704Z,18.70
2023-07-02T23:57:34.820Z,17.02
